Weather History for KJHW - November, 2012

Change the Weather History Date:

Thursday, November 29, 2012

  Actual Average Record
Temperature  
Mean Temperature 32 °F -  
Max Temperature 39 °F 43 °F 72 °F (1990)
Min Temperature 24 °F 27 °F 15 °F (2013)
Degree Days  
Heating Degree Days 34    
Moisture  
Dew Point 20 °F    
Average Humidity 63    
Maximum Humidity 86    
Minimum Humidity 42    
Precipitation  
Precipitation 0.00 in - - ()
Sea Level Pressure  
Sea Level Pressure 30.24 in    
Wind  
Wind Speed 9 mph (SW)    
Max Wind Speed 15 mph    
Max Gust Speed 18 mph    
Visibility 9 miles    
Events      
Averages and records for this station are not official NWS values.
T = Trace of Precipitation, MM = Missing Value Source: NWS Daily Summary

Daily Weather History Graph

Daily Weather History Graph

Search for Another Location

Airport or City:

Trip Planner

Search our weather history database for the weather conditions in past years. The results will help you decide how hot, cold, wet, or windy it might be!

Date:

Astronomy

Nov. 29, 2012 Rise Set
Actual Time 7:24 AM EST 4:46 PM EST
Civil Twilight 6:53 AM EST 5:17 PM EST
Nautical Twilight 6:18 AM EST 5:52 PM EST
Astronomical Twilight 5:44 AM EST 6:26 PM EST
Moon 5:47 PM EST (11/29) 8:09 AM EST (11/29)
Length of Visible Light 10h 24m
Length of Day
9h 22m
Full, 99% of the Moon is Illuminated
Nov 29
Full
Dec 6
Last Quarter
Dec 13
New
Dec 20
First Quarter
Dec 28
Full

Hourly Weather History & Observations

Time (EST) Temp. Windchill Dew Point Humidity Pressure Visibility Wind Dir Wind Speed Gust Speed Precip Events Conditions
12:15 AM 30.2 °F 21.3 °F 21.2 °F 69% 30.23 in 10.0 mi WSW 10.4 mph - N/A   Overcast
12:35 AM 30.2 °F 21.9 °F 21.2 °F 69% 30.23 in 10.0 mi WSW 9.2 mph - N/A   Overcast
12:55 AM 30.2 °F 21.9 °F 23.0 °F 75% 30.23 in 10.0 mi WSW 9.2 mph - N/A   Overcast
1:15 AM 30.2 °F 20.8 °F 21.2 °F 69% 30.23 in 10.0 mi WSW 11.5 mph - N/A   Overcast
1:35 AM 28.4 °F 20.4 °F 21.2 °F 74% 30.24 in 10.0 mi WSW 8.1 mph - N/A   Scattered Clouds
1:55 AM 26.6 °F 18.2 °F 21.2 °F 80% 30.24 in 10.0 mi WSW 8.1 mph - N/A   Clear
2:15 AM 26.6 °F 18.2 °F 21.2 °F 80% 30.24 in 10.0 mi WSW 8.1 mph - N/A   Clear
2:35 AM 26.6 °F 19.1 °F 21.2 °F 80% 30.24 in 10.0 mi WSW 6.9 mph - N/A   Clear
2:55 AM 24.8 °F 16.1 °F 21.2 °F 86% 30.24 in 10.0 mi WSW 8.1 mph - N/A   Clear
3:15 AM 24.8 °F 16.1 °F 21.2 °F 86% 30.25 in 10.0 mi WSW 8.1 mph - N/A   Clear
3:35 AM 26.6 °F 18.2 °F 21.2 °F 80% 30.24 in 10.0 mi SW 8.1 mph - N/A   Clear
3:55 AM 26.6 °F 19.1 °F 21.2 °F 80% 30.25 in 10.0 mi WSW 6.9 mph - N/A   Clear
4:15 AM 24.8 °F 17.9 °F 21.2 °F 86% 30.24 in 10.0 mi SW 5.8 mph - N/A   Clear
4:35 AM 24.8 °F 17.9 °F 21.2 °F 86% 30.25 in 10.0 mi SW 5.8 mph - N/A   Clear
4:55 AM 24.8 °F 16.9 °F 21.2 °F 86% 30.25 in 10.0 mi SW 6.9 mph - N/A   Clear
5:15 AM 24.8 °F 17.9 °F 21.2 °F 86% 30.25 in 8.0 mi SW 5.8 mph - N/A   Partly Cloudy
5:35 AM 26.6 °F 20.0 °F 21.2 °F 80% 30.25 in 8.0 mi SW 5.8 mph - N/A   Mostly Cloudy
5:55 AM 26.6 °F 19.1 °F 21.2 °F 80% 30.26 in 8.0 mi SSW 6.9 mph - N/A   Overcast
6:15 AM 24.8 °F 17.9 °F 21.2 °F 86% 30.26 in 7.0 mi SSW 5.8 mph - N/A   Scattered Clouds
6:35 AM 24.8 °F 16.1 °F 21.2 °F 86% 30.26 in 7.0 mi SW 8.1 mph - N/A   Clear
6:55 AM 26.6 °F 18.2 °F 21.2 °F 80% 30.26 in 7.0 mi SW 8.1 mph - N/A   Partly Cloudy
7:15 AM 26.6 °F 17.5 °F 21.2 °F 80% 30.27 in 7.0 mi SW 9.2 mph - N/A   Mostly Cloudy
7:35 AM 26.6 °F 18.2 °F 21.2 °F 80% 30.26 in 5.0 mi SW 8.1 mph - N/A   Partly Cloudy
7:55 AM 26.6 °F 18.2 °F 21.2 °F 80% 30.27 in 5.0 mi SW 8.1 mph - N/A   Clear
8:15 AM 26.6 °F 17.5 °F 23.0 °F 86% 30.27 in 5.0 mi SW 9.2 mph - N/A   Partly Cloudy
8:35 AM 28.4 °F 20.4 °F 23.0 °F 80% 30.27 in 5.0 mi SW 8.1 mph - N/A   Partly Cloudy
8:55 AM 28.4 °F 18.5 °F 23.0 °F 80% 30.28 in 6.0 mi SW 11.5 mph - N/A   Mostly Cloudy
9:15 AM 28.4 °F 19.1 °F 23.0 °F 80% 30.28 in 8.0 mi SW 10.4 mph - N/A   Scattered Clouds
9:35 AM 30.2 °F 21.3 °F 24.8 °F 80% 30.28 in 9.0 mi SW 10.4 mph - N/A   Mostly Cloudy
9:55 AM 32.0 °F 23.0 °F 23.0 °F 69% 30.28 in 9.0 mi SW 11.5 mph - N/A   Partly Cloudy
10:15 AM 32.0 °F 21.6 °F 24.8 °F 75% 30.28 in 9.0 mi SW 15.0 mph 18.4 mph N/A   Clear
10:35 AM 33.8 °F 25.8 °F 24.8 °F 70% 30.28 in 10.0 mi SW 10.4 mph - N/A   Clear
11:15 AM 35.6 °F 29.9 °F 24.8 °F 65% 30.28 in 10.0 mi SW 6.9 mph - N/A   Clear
11:35 AM 35.6 °F 26.6 °F 24.8 °F 65% 30.26 in 10.0 mi WSW 13.8 mph - N/A   Clear
11:55 AM 37.4 °F 28.9 °F 21.2 °F 52% 30.25 in 10.0 mi WSW 13.8 mph - N/A   Clear
12:15 PM 37.4 °F 28.5 °F 21.2 °F 52% 30.25 in 10.0 mi WSW 15.0 mph 18.4 mph N/A   Clear
12:55 PM 39.2 °F 31.6 °F 21.2 °F 49% 30.24 in 10.0 mi SW 12.7 mph - N/A   Clear
1:15 PM 39.2 °F 32.0 °F 21.2 °F 49% 30.23 in 10.0 mi SW 11.5 mph 18.4 mph N/A   Clear
1:35 PM 39.2 °F 30.8 °F 19.4 °F 45% 30.23 in 10.0 mi WSW 15.0 mph - N/A   Clear
1:55 PM 39.2 °F 31.6 °F 19.4 °F 45% 30.23 in 10.0 mi SW 12.7 mph - N/A   Clear
2:15 PM 39.2 °F 31.2 °F 19.4 °F 45% 30.21 in 10.0 mi WSW 13.8 mph - N/A   Clear
2:35 PM 39.2 °F 31.6 °F 19.4 °F 45% 30.21 in 10.0 mi WSW 12.7 mph 18.4 mph N/A   Clear
2:55 PM 39.2 °F 31.2 °F 17.6 °F 42% 30.21 in 10.0 mi WSW 13.8 mph - N/A   Clear
3:15 PM 39.2 °F 30.8 °F 17.6 °F 42% 30.21 in 10.0 mi WSW 15.0 mph - N/A   Clear
3:35 PM 39.2 °F 30.8 °F 17.6 °F 42% 30.21 in 10.0 mi WSW 15.0 mph - N/A   Clear
3:55 PM 39.2 °F 31.6 °F 17.6 °F 42% 30.22 in 10.0 mi WSW 12.7 mph 17.3 mph N/A   Clear
4:15 PM 39.2 °F 33.0 °F 17.6 °F 42% 30.21 in 10.0 mi WSW 9.2 mph - N/A   Clear
4:35 PM 37.4 °F 30.8 °F 17.6 °F 45% 30.21 in 10.0 mi WSW 9.2 mph - N/A   Clear
4:55 PM 37.4 °F 32.1 °F 17.6 °F 45% 30.21 in 10.0 mi SW 6.9 mph - N/A   Clear
5:15 PM 37.4 °F 31.4 °F 17.6 °F 45% 30.21 in 10.0 mi SSW 8.1 mph - N/A   Clear
5:35 PM 35.6 °F 29.9 °F 17.6 °F 48% 30.21 in 10.0 mi SSW 6.9 mph - N/A   Clear
5:55 PM 35.6 °F 29.2 °F 17.6 °F 48% 30.21 in 10.0 mi SSW 8.1 mph - N/A   Clear
6:15 PM 35.6 °F 28.6 °F 17.6 °F 48% 30.22 in 10.0 mi SSW 9.2 mph - N/A   Clear
6:35 PM 35.6 °F 29.2 °F 17.6 °F 48% 30.22 in 10.0 mi SW 8.1 mph - N/A   Clear
6:55 PM 35.6 °F 29.9 °F 17.6 °F 48% 30.23 in 10.0 mi SSW 6.9 mph - N/A   Clear
7:15 PM 35.6 °F 29.9 °F 17.6 °F 48% 30.22 in 10.0 mi SSW 6.9 mph - N/A   Clear
7:35 PM 35.6 °F 29.9 °F 17.6 °F 48% 30.23 in 10.0 mi SW 6.9 mph - N/A   Clear
7:55 PM 33.8 °F 27.7 °F 17.6 °F 52% 30.23 in 10.0 mi SW 6.9 mph - N/A   Clear
8:15 PM 33.8 °F 27.0 °F 17.6 °F 52% 30.24 in 10.0 mi SW 8.1 mph - N/A   Clear
8:35 PM 33.8 °F 27.0 °F 17.6 °F 52% 30.24 in 10.0 mi SW 8.1 mph - N/A   Clear
8:55 PM 32.0 °F 24.8 °F 17.6 °F 55% 30.25 in 10.0 mi SW 8.1 mph - N/A   Clear
9:15 PM 33.8 °F 27.0 °F 17.6 °F 52% 30.25 in 10.0 mi SW 8.1 mph - N/A   Clear
9:35 PM 33.8 °F 27.0 °F 17.6 °F 52% 30.24 in 10.0 mi SW 8.1 mph - N/A   Clear
9:55 PM 33.8 °F 28.6 °F 17.6 °F 52% 30.24 in 10.0 mi SW 5.8 mph - N/A   Clear
10:15 PM 33.8 °F 27.7 °F 17.6 °F 52% 30.25 in 10.0 mi SW 6.9 mph - N/A   Clear
10:35 PM 32.0 °F 26.4 °F 17.6 °F 55% 30.25 in 10.0 mi SW 5.8 mph - N/A   Clear
10:55 PM 32.0 °F 25.6 °F 17.6 °F 55% 30.25 in 10.0 mi SW 6.9 mph - N/A   Clear
11:15 PM 32.0 °F 25.6 °F 19.4 °F 60% 30.25 in 10.0 mi SW 6.9 mph - N/A   Clear
11:35 PM 32.0 °F 26.4 °F 17.6 °F 55% 30.25 in 10.0 mi SW 5.8 mph - N/A   Clear
11:55 PM 32.0 °F 27.5 °F 17.6 °F 55% 30.26 in 10.0 mi SSW 4.6 mph - N/A   Clear